Brashear, Texas
Current Conditions -  °F | °C
As of 12:35 AM on Monday 24 Nov 2014 (Local Time) from KSLR Reporting Station
Scattered Clouds Scattered Clouds  
Wind Chill: 51°   Ceiling: Unl
Heat Index: 51°   Visibility: 10mi
Dew Point: 40°   Wind: 14mph
Humidity: 68%   Direction: 300°WNW
Pressure: 29.8"   Gusts: 18mph
Location:  33.12°N, 95.73°W
Report Text: KSLR 240635Z AUTO 30012G16KT 10SM SCT035 10/05 A2980 RMK AO2 T01030046
Loading
Personal Weather Stations






























Interactive Weather Map New forecast layout! Learn more

10-Day Weather Forecast

Advertisements
Track Severe Weather on mobile